Time;durP1;ratioP1;P1;durP2;ratioP2;P2;SDS_P1;SDS_P2;PMS_P1;PMS_P2;Temp;Humidity;BMP_temperature;BMP_pressure;BME280_temperature;BME280_humidity;BME280_pressure;Samples;Min_cycle;Max_cycle;Signal;HPM_P1;HPM_P2
2021/05/30 00:01:52;;;;;;;25.97;19.87;;;;;;;;;;4984957;28;20239;-45
2021/05/30 00:04:17;;;;;;;27.50;20.83;;;;;;;;;;4986959;28;20609;-45
2021/05/30 00:06:42;;;;;;;26.30;19.83;;;;;;;;;;4988261;28;20436;-45
2021/05/30 00:09:08;;;;;;;21.70;18.50;;;;;;;;;;4991479;28;20181;-45
2021/05/30 00:11:34;;;;;;;24.17;18.57;;;;;;;;;;4987923;28;20194;-46
2021/05/30 00:13:59;;;;;;;22.37;18.60;;;;;;;;;;4986892;28;20718;-46
2021/05/30 00:16:24;;;;;;;27.80;21.37;;;;;;;;;;4986307;28;20603;-45
2021/05/30 00:18:49;;;;;;;24.77;19.88;;;;;;;;;;4989725;28;20183;-45
2021/05/30 00:21:15;;;;;;;23.95;18.50;;;;;;;;;;4986020;28;20235;-45
2021/05/30 00:23:40;;;;;;;24.87;19.37;;;;;;;;;;4986716;28;20723;-45
2021/05/30 00:26:05;;;;;;;23.75;18.65;;;;;;;;;;4985829;28;20984;-45
2021/05/30 00:28:30;;;;;;;22.90;18.87;;;;;;;;;;4993902;28;20280;-45
2021/05/30 00:30:56;;;;;;;20.38;18.13;;;;;;;;;;4985730;28;20274;-45
2021/05/30 00:33:21;;;;;;;21.60;18.20;;;;;;;;;;4986798;28;20186;-46
2021/05/30 00:35:46;;;;;;;22.63;19.37;;;;;;;;;;4986953;28;20523;-46
2021/05/30 00:38:11;;;;;;;20.83;18.33;;;;;;;;;;4987324;28;20267;-46
2021/05/30 00:40:36;;;;;;;21.60;18.23;;;;;;;;;;4987042;28;20187;-45
2021/05/30 00:43:02;;;;;;;21.67;18.55;;;;;;;;;;4984474;28;20179;-45
2021/05/30 00:45:28;;;;;;;22.97;19.10;;;;;;;;;;4987759;28;20216;-45
2021/05/30 00:47:53;;;;;;;19.03;17.03;;;;;;;;;;4987241;28;20185;-44
2021/05/30 00:50:18;;;;;;;22.13;18.00;;;;;;;;;;4986737;28;20268;-45
2021/05/30 00:52:43;;;;;;;23.20;19.25;;;;;;;;;;4983637;28;20184;-45
2021/05/30 00:55:10;;;;;;;19.80;17.50;;;;;;;;;;4980838;28;20594;-44
2021/05/30 00:57:35;;;;;;;20.93;18.23;;;;;;;;;;4985566;28;20167;-44
2021/05/30 01:00:01;;;;;;;21.42;17.75;;;;;;;;;;4983277;28;20601;-45
2021/05/30 01:02:26;;;;;;;22.42;17.05;;;;;;;;;;4986533;28;20172;-45
2021/05/30 01:04:51;;;;;;;20.20;16.73;;;;;;;;;;4986115;28;20241;-45
2021/05/30 01:07:17;;;;;;;21.02;17.63;;;;;;;;;;4986804;28;20190;-45
2021/05/30 01:09:43;;;;;;;21.27;17.47;;;;;;;;;;5000959;28;20206;-45
2021/05/30 01:12:08;;;;;;;19.60;16.80;;;;;;;;;;4985393;28;20614;-46
2021/05/30 01:14:34;;;;;;;20.13;16.10;;;;;;;;;;4984970;28;20234;-46
2021/05/30 01:16:59;;;;;;;19.10;16.57;;;;;;;;;;4986317;28;20263;-46
2021/05/30 01:19:26;;;;;;;20.92;17.52;;;;;;;;;;4987026;28;20705;-44
2021/05/30 01:21:52;;;;;;;18.90;14.90;;;;;;;;;;4986477;28;20180;-46
2021/05/30 01:24:17;;;;;;;17.70;15.23;;;;;;;;;;4986524;28;20939;-46
2021/05/30 01:26:43;;;;;;;19.10;15.30;;;;;;;;;;4986673;28;20656;-45
2021/05/30 01:29:08;;;;;;;21.97;16.90;;;;;;;;;;4988614;28;20290;-45
2021/05/30 01:31:34;;;;;;;19.60;17.47;;;;;;;;;;4949240;28;1009128;-45
2021/05/30 01:33:59;;;;;;;18.57;16.13;;;;;;;;;;4986462;28;20212;-46
2021/05/30 01:36:24;;;;;;;19.87;16.00;;;;;;;;;;4986973;28;20216;-46
2021/05/30 01:38:49;;;;;;;16.83;14.37;;;;;;;;;;4987930;28;20188;-46
2021/05/30 01:41:14;;;;;;;18.02;14.50;;;;;;;;;;4983350;28;20241;-45
2021/05/30 01:43:39;;;;;;;17.87;14.10;;;;;;;;;;4988599;28;20167;-45
2021/05/30 01:46:05;;;;;;;18.10;14.33;;;;;;;;;;4985095;28;20196;-46
2021/05/30 01:48:30;;;;;;;16.40;14.00;;;;;;;;;;4989966;28;20581;-47
2021/05/30 01:50:55;;;;;;;19.13;15.50;;;;;;;;;;4987282;28;20222;-47
2021/05/30 01:53:25;;;;;;;14.03;12.63;;;;;;;;;;4972503;28;20187;-46
2021/05/30 01:58:22;;;;;;;16.17;12.00;;;;;;;;;;4991349;28;20601;-47
2021/05/30 02:00:48;;;;;;;13.20;11.87;;;;;;;;;;4985536;28;20964;-46
2021/05/30 02:03:14;;;;;;;14.13;12.63;;;;;;;;;;4985171;28;20215;-46
2021/05/30 02:05:41;;;;;;;16.37;12.70;;;;;;;;;;4986757;28;21033;-46
2021/05/30 02:08:07;;;;;;;12.60;11.20;;;;;;;;;;4987562;28;20638;-46
2021/05/30 02:10:32;;;;;;;13.23;11.33;;;;;;;;;;4983077;28;20697;-46
2021/05/30 02:12:58;;;;;;;11.63;10.52;;;;;;;;;;4986309;28;20628;-46
2021/05/30 02:15:23;;;;;;;12.20;10.90;;;;;;;;;;4986842;28;20182;-46
2021/05/30 02:17:48;;;;;;;13.07;11.70;;;;;;;;;;4986693;28;20589;-46
2021/05/30 02:20:15;;;;;;;16.07;12.87;;;;;;;;;;4984955;28;20188;-46
2021/05/30 02:22:40;;;;;;;12.93;11.67;;;;;;;;;;4984898;28;20176;-47
2021/05/30 02:25:08;;;;;;;12.60;11.30;;;;;;;;;;4982784;28;20601;-46
2021/05/30 02:27:33;;;;;;;13.00;11.57;;;;;;;;;;4984087;28;20198;-46
2021/05/30 02:29:58;;;;;;;11.33;10.23;;;;;;;;;;4985644;28;20659;-46
2021/05/30 02:32:23;;;;;;;11.77;10.57;;;;;;;;;;4983133;28;20316;-47
2021/05/30 02:34:48;;;;;;;12.25;11.05;;;;;;;;;;4986827;28;20169;-46
2021/05/30 02:37:14;;;;;;;10.53;9.53;;;;;;;;;;4984502;28;20189;-45
2021/05/30 02:39:40;;;;;;;10.80;9.70;;;;;;;;;;4987761;28;20182;-45
2021/05/30 02:42:06;;;;;;;11.40;10.30;;;;;;;;;;4987801;28;20180;-44
2021/05/30 02:44:31;;;;;;;11.53;10.30;;;;;;;;;;4986573;28;20665;-46
2021/05/30 02:46:56;;;;;;;10.35;9.35;;;;;;;;;;4983196;28;20178;-46
2021/05/30 02:49:21;;;;;;;10.50;9.40;;;;;;;;;;4988424;28;20259;-45
2021/05/30 02:51:47;;;;;;;10.17;9.13;;;;;;;;;;4988987;28;20637;-45
2021/05/30 02:54:12;;;;;;;10.47;9.07;;;;;;;;;;4982757;28;20180;-45
2021/05/30 02:56:37;;;;;;;9.50;8.67;;;;;;;;;;4986805;28;20182;-46
2021/05/30 02:59:02;;;;;;;9.20;8.40;;;;;;;;;;4985595;28;20182;-46
2021/05/30 03:01:28;;;;;;;10.23;9.33;;;;;;;;;;4984824;28;20212;-45
2021/05/30 03:03:53;;;;;;;10.13;9.13;;;;;;;;;;4985510;28;20244;-47
2021/05/30 03:06:20;;;;;;;9.10;7.97;;;;;;;;;;4986566;28;20238;-47
2021/05/30 03:08:45;;;;;;;9.10;8.23;;;;;;;;;;4985794;28;20272;-47
2021/05/30 03:11:10;;;;;;;9.55;8.75;;;;;;;;;;4988400;28;21048;-46
2021/05/30 03:13:35;;;;;;;9.52;8.63;;;;;;;;;;4988990;28;20181;-46
2021/05/30 03:16:00;;;;;;;10.40;8.43;;;;;;;;;;4986202;28;20180;-46
2021/05/30 03:18:25;;;;;;;9.23;8.23;;;;;;;;;;4994032;28;20174;-46
2021/05/30 03:20:51;;;;;;;8.88;8.07;;;;;;;;;;4987902;28;20557;-47
2021/05/30 03:23:16;;;;;;;9.13;8.23;;;;;;;;;;4987482;28;20195;-45
2021/05/30 03:25:41;;;;;;;8.27;7.57;;;;;;;;;;4989893;28;20208;-45
2021/05/30 03:28:06;;;;;;;9.57;7.93;;;;;;;;;;4988433;28;20193;-45
2021/05/30 03:30:32;;;;;;;9.50;6.75;;;;;;;;;;4987667;28;20271;-46
2021/05/30 03:32:57;;;;;;;7.17;6.57;;;;;;;;;;4987587;28;20179;-45
2021/05/30 03:35:22;;;;;;;8.18;6.80;;;;;;;;;;4989164;28;20177;-46
2021/05/30 03:37:48;;;;;;;7.80;7.10;;;;;;;;;;4990230;28;20171;-46
2021/05/30 03:40:43;;;;;;;7.37;6.77;;;;;;;;;;4989705;28;20170;-46
2021/05/30 03:42:59;;;;;;;7.23;6.53;;;;;;;;;;4981798;28;20195;-46
2021/05/30 03:45:24;;;;;;;7.30;6.70;;;;;;;;;;4989256;28;20610;-45
2021/05/30 03:47:50;;;;;;;7.60;6.90;;;;;;;;;;4989103;28;20187;-46
2021/05/30 03:50:15;;;;;;;7.30;6.70;;;;;;;;;;4995431;28;20968;-47
2021/05/30 03:52:41;;;;;;;7.10;6.50;;;;;;;;;;4985227;28;20618;-46
2021/05/30 03:55:07;;;;;;;6.30;5.80;;;;;;;;;;4986747;28;20329;-46
2021/05/30 03:57:32;;;;;;;6.57;5.97;;;;;;;;;;4988854;28;20187;-46
2021/05/30 03:59:59;;;;;;;6.63;6.03;;;;;;;;;;4987158;28;20647;-46
2021/05/30 04:02:24;;;;;;;6.80;6.17;;;;;;;;;;4989119;28;20624;-45
2021/05/30 04:04:49;;;;;;;6.40;5.73;;;;;;;;;;4988090;28;20617;-46
2021/05/30 04:07:14;;;;;;;6.93;6.30;;;;;;;;;;4985497;28;20187;-47
2021/05/30 04:09:39;;;;;;;6.43;5.93;;;;;;;;;;4987302;28;20674;-46
2021/05/30 04:12:05;;;;;;;8.90;5.90;;;;;;;;;;4989062;28;20268;-46
2021/05/30 04:14:30;;;;;;;6.10;5.60;;;;;;;;;;4994085;28;20192;-46
2021/05/30 04:16:55;;;;;;;6.30;5.80;;;;;;;;;;4986468;28;20391;-47
2021/05/30 04:19:20;;;;;;;6.45;5.88;;;;;;;;;;4988706;28;20182;-47
2021/05/30 04:21:45;;;;;;;6.13;5.53;;;;;;;;;;4984228;28;20755;-46
2021/05/30 04:24:10;;;;;;;5.87;5.37;;;;;;;;;;4988083;28;20284;-46
2021/05/30 04:26:35;;;;;;;6.60;6.00;;;;;;;;;;4988552;28;20611;-46
2021/05/30 04:29:01;;;;;;;5.37;4.97;;;;;;;;;;4987144;28;20562;-46
2021/05/30 04:31:26;;;;;;;6.00;5.50;;;;;;;;;;4985479;28;20276;-47
2021/05/30 04:33:51;;;;;;;6.20;5.80;;;;;;;;;;4988691;28;20205;-47
2021/05/30 04:36:16;;;;;;;5.88;5.38;;;;;;;;;;4986093;28;20198;-47
2021/05/30 04:38:42;;;;;;;5.57;5.07;;;;;;;;;;4991600;28;20250;-47
2021/05/30 04:41:07;;;;;;;5.40;5.00;;;;;;;;;;4984041;28;20601;-47
2021/05/30 04:43:32;;;;;;;5.28;4.93;;;;;;;;;;4987578;28;20194;-47
2021/05/30 04:45:57;;;;;;;5.80;5.30;;;;;;;;;;4986151;28;20212;-46
2021/05/30 04:48:22;;;;;;;4.83;4.43;;;;;;;;;;4985109;28;20180;-47
2021/05/30 04:51:07;;;;;;;6.80;5.10;;;;;;;;;;4987113;28;20191;-46
2021/05/30 04:53:36;;;;;;;5.87;4.80;;;;;;;;;;4986417;28;20254;-47
2021/05/30 04:56:02;;;;;;;4.40;4.00;;;;;;;;;;4983965;28;20604;-47
2021/05/30 04:58:27;;;;;;;4.80;4.40;;;;;;;;;;4990541;28;20685;-47
2021/05/30 05:00:52;;;;;;;5.83;4.87;;;;;;;;;;4993060;28;20632;-47
2021/05/30 05:03:17;;;;;;;5.67;5.13;;;;;;;;;;5003724;28;20316;-48
2021/05/30 05:05:42;;;;;;;4.57;4.28;;;;;;;;;;4987760;28;20216;-47
2021/05/30 05:08:08;;;;;;;4.45;4.15;;;;;;;;;;4987697;28;20199;-47
2021/05/30 05:10:33;;;;;;;5.73;5.23;;;;;;;;;;4984768;28;20205;-47
2021/05/30 05:12:58;;;;;;;4.97;4.68;;;;;;;;;;4990154;28;20296;-47
2021/05/30 05:15:23;;;;;;;4.97;4.60;;;;;;;;;;4987371;28;20178;-46
2021/05/30 05:17:48;;;;;;;6.25;4.63;;;;;;;;;;4990009;28;20168;-46
2021/05/30 05:20:13;;;;;;;5.20;4.80;;;;;;;;;;4987783;28;20185;-47
2021/05/30 05:22:38;;;;;;;5.03;4.67;;;;;;;;;;4988094;28;20181;-46
2021/05/30 05:25:04;;;;;;;5.10;4.80;;;;;;;;;;4987321;28;20189;-46
2021/05/30 05:27:29;;;;;;;5.47;4.90;;;;;;;;;;4987789;28;20195;-47
2021/05/30 05:29:54;;;;;;;5.63;5.20;;;;;;;;;;4989663;28;20688;-46
2021/05/30 05:32:19;;;;;;;5.50;5.00;;;;;;;;;;4986265;28;20184;-47
2021/05/30 05:34:45;;;;;;;6.28;5.78;;;;;;;;;;4985108;28;20166;-46
2021/05/30 05:37:10;;;;;;;4.30;4.00;;;;;;;;;;4995947;28;20176;-47
2021/05/30 05:39:35;;;;;;;4.53;4.13;;;;;;;;;;4990988;28;20526;-47
2021/05/30 05:42:00;;;;;;;4.82;4.43;;;;;;;;;;4986365;28;20170;-46
2021/05/30 05:44:25;;;;;;;5.50;5.00;;;;;;;;;;4986049;28;20178;-47
2021/05/30 05:46:50;;;;;;;5.30;4.90;;;;;;;;;;4985695;28;20181;-47
2021/05/30 05:49:16;;;;;;;5.00;4.53;;;;;;;;;;4985772;28;20664;-47
2021/05/30 05:51:41;;;;;;;4.90;4.50;;;;;;;;;;4984744;28;20201;-47
2021/05/30 05:54:06;;;;;;;4.87;4.57;;;;;;;;;;4985467;28;20825;-46
2021/05/30 05:56:31;;;;;;;5.50;4.90;;;;;;;;;;4989632;28;20174;-46
2021/05/30 05:58:56;;;;;;;5.20;4.80;;;;;;;;;;4987390;28;20180;-47
2021/05/30 06:01:21;;;;;;;4.13;3.72;;;;;;;;;;4986050;28;20583;-47
2021/05/30 06:03:46;;;;;;;4.60;4.20;;;;;;;;;;4995409;28;20181;-48
2021/05/30 06:06:12;;;;;;;4.70;4.40;;;;;;;;;;4982103;28;20232;-47
2021/05/30 06:08:37;;;;;;;4.87;4.50;;;;;;;;;;4986590;28;20654;-48
2021/05/30 06:11:02;;;;;;;4.70;4.30;;;;;;;;;;4984998;28;20337;-47
2021/05/30 06:13:27;;;;;;;4.70;3.85;;;;;;;;;;4984826;28;20257;-47
2021/05/30 06:15:53;;;;;;;4.97;4.60;;;;;;;;;;4986544;28;20225;-47
2021/05/30 06:18:21;;;;;;;4.60;4.30;;;;;;;;;;4984158;28;20229;-46
2021/05/30 06:20:46;;;;;;;3.73;3.53;;;;;;;;;;4986074;28;20235;-46
2021/05/30 06:23:12;;;;;;;5.13;4.67;;;;;;;;;;4987266;28;20588;-46
2021/05/30 06:25:38;;;;;;;4.07;3.80;;;;;;;;;;4983817;28;20185;-47
2021/05/30 06:28:04;;;;;;;4.37;3.97;;;;;;;;;;4985827;28;21004;-46
2021/05/30 06:30:32;;;;;;;4.67;3.90;;;;;;;;;;4986054;28;20240;-46
2021/05/30 06:32:58;;;;;;;4.80;4.10;;;;;;;;;;4984716;28;20189;-47
2021/05/30 06:35:23;;;;;;;4.43;4.10;;;;;;;;;;4984855;28;20666;-46
2021/05/30 06:37:55;;;;;;;4.60;3.93;;;;;;;;;;4984947;28;20172;-47
2021/05/30 06:40:20;;;;;;;5.10;4.70;;;;;;;;;;4981472;28;20239;-47
2021/05/30 06:42:46;;;;;;;4.73;4.43;;;;;;;;;;4985516;28;20613;-47
2021/05/30 06:45:11;;;;;;;5.30;4.80;;;;;;;;;;4978550;28;20245;-46
2021/05/30 06:47:36;;;;;;;5.27;4.77;;;;;;;;;;4982996;28;20376;-46
2021/05/30 06:50:01;;;;;;;4.20;3.90;;;;;;;;;;4975784;28;20415;-46
2021/05/30 06:52:27;;;;;;;4.10;3.80;;;;;;;;;;4979539;28;20186;-47
2021/05/30 06:54:52;;;;;;;4.28;3.90;;;;;;;;;;4982115;28;20343;-47
2021/05/30 06:57:17;;;;;;;5.23;4.40;;;;;;;;;;4986356;28;20196;-46
2021/05/30 06:59:42;;;;;;;3.90;3.60;;;;;;;;;;4989452;28;20679;-46
2021/05/30 07:02:08;;;;;;;4.57;4.20;;;;;;;;;;4991106;28;20181;-47
2021/05/30 07:04:34;;;;;;;4.00;3.70;;;;;;;;;;5005247;28;20652;-49
2021/05/30 07:07:00;;;;;;;4.23;3.87;;;;;;;;;;4989953;28;20182;-47
2021/05/30 07:09:25;;;;;;;5.40;4.17;;;;;;;;;;4987395;28;21227;-48
2021/05/30 07:11:50;;;;;;;4.30;4.00;;;;;;;;;;4986294;28;20266;-46
2021/05/30 07:14:15;;;;;;;4.10;3.80;;;;;;;;;;4989738;28;20420;-47
2021/05/30 07:16:40;;;;;;;6.10;3.90;;;;;;;;;;4986782;28;20195;-47
2021/05/30 07:19:06;;;;;;;3.85;3.50;;;;;;;;;;4991626;28;20720;-47
2021/05/30 07:21:31;;;;;;;4.60;4.23;;;;;;;;;;4985828;28;20249;-47
2021/05/30 07:23:56;;;;;;;4.93;4.53;;;;;;;;;;4991435;28;20180;-47
2021/05/30 07:26:21;;;;;;;4.23;3.83;;;;;;;;;;4989003;28;20285;-48
2021/05/30 07:28:47;;;;;;;5.00;4.50;;;;;;;;;;4984252;28;20216;-48
2021/05/30 07:31:13;;;;;;;4.33;3.97;;;;;;;;;;4972602;28;20232;-47
2021/05/30 07:33:38;;;;;;;4.53;4.23;;;;;;;;;;4983725;28;20182;-46
2021/05/30 07:36:05;;;;;;;4.90;4.50;;;;;;;;;;4986249;28;20610;-47
2021/05/30 07:38:30;;;;;;;4.30;4.00;;;;;;;;;;4988737;28;20237;-49
2021/05/30 07:40:55;;;;;;;4.67;4.10;;;;;;;;;;4987495;28;20579;-47
2021/05/30 07:43:20;;;;;;;4.20;3.90;;;;;;;;;;4990124;28;20180;-47
2021/05/30 07:45:45;;;;;;;4.43;4.03;;;;;;;;;;4989005;28;20181;-46
2021/05/30 07:48:11;;;;;;;4.15;3.70;;;;;;;;;;4992978;28;20256;-48
2021/05/30 07:50:36;;;;;;;4.60;4.17;;;;;;;;;;5008905;28;20268;-48
2021/05/30 07:53:02;;;;;;;4.30;4.00;;;;;;;;;;5006745;28;20404;-48
2021/05/30 07:55:27;;;;;;;4.30;3.90;;;;;;;;;;5004991;28;20242;-47
2021/05/30 07:57:52;;;;;;;6.68;3.90;;;;;;;;;;5008274;28;20996;-47
2021/05/30 08:00:17;;;;;;;4.25;3.90;;;;;;;;;;5006908;28;20216;-47
2021/05/30 08:02:44;;;;;;;3.93;3.63;;;;;;;;;;5004256;28;20192;-48
2021/05/30 08:05:11;;;;;;;4.00;3.70;;;;;;;;;;4987373;28;20237;-48
2021/05/30 08:07:36;;;;;;;5.93;4.03;;;;;;;;;;4986751;28;20655;-48
2021/05/30 08:10:02;;;;;;;3.73;3.47;;;;;;;;;;4986743;28;20642;-47
2021/05/30 08:12:29;;;;;;;4.57;4.17;;;;;;;;;;4998927;28;20594;-47
2021/05/30 08:14:54;;;;;;;4.63;4.23;;;;;;;;;;5005875;28;20593;-47
2021/05/30 08:17:19;;;;;;;5.15;3.88;;;;;;;;;;5008100;28;20588;-47
2021/05/30 08:19:44;;;;;;;4.43;4.10;;;;;;;;;;5005989;28;20181;-48
2021/05/30 08:22:09;;;;;;;4.70;4.30;;;;;;;;;;5004498;28;20174;-47
2021/05/30 08:24:37;;;;;;;4.27;3.87;;;;;;;;;;5006048;28;20174;-48
2021/05/30 08:27:02;;;;;;;4.43;3.40;;;;;;;;;;5006506;28;20258;-48
2021/05/30 08:29:27;;;;;;;4.00;3.57;;;;;;;;;;5005978;28;21207;-48
2021/05/30 08:31:52;;;;;;;3.97;3.67;;;;;;;;;;5007357;28;20563;-47
2021/05/30 08:34:18;;;;;;;5.80;3.63;;;;;;;;;;5004564;28;20189;-47
2021/05/30 08:36:43;;;;;;;4.07;3.77;;;;;;;;;;5003439;28;20171;-48
2021/05/30 08:39:09;;;;;;;4.07;3.67;;;;;;;;;;5006194;28;20246;-47
2021/05/30 08:41:34;;;;;;;4.00;3.60;;;;;;;;;;5007529;28;20542;-47
2021/05/30 08:43:59;;;;;;;4.27;3.40;;;;;;;;;;5007510;28;20175;-47
2021/05/30 08:46:31;;;;;;;4.80;4.37;;;;;;;;;;4991668;28;20183;-47
2021/05/30 08:48:56;;;;;;;6.20;4.00;;;;;;;;;;4983957;28;20182;-48
2021/05/30 08:51:22;;;;;;;4.17;3.80;;;;;;;;;;4985821;28;21236;-47
2021/05/30 08:53:47;;;;;;;5.73;3.97;;;;;;;;;;4987455;28;20657;-47
2021/05/30 08:56:13;;;;;;;3.80;3.50;;;;;;;;;;4988161;28;20711;-47
2021/05/30 08:58:43;;;;;;;3.67;3.37;;;;;;;;;;4975269;28;20179;-48
2021/05/30 09:01:13;;;;;;;4.30;3.90;;;;;;;;;;4966514;28;20613;-47
2021/05/30 09:03:53;;;;;;;5.00;4.50;;;;;;;;;;4978793;28;20989;-47
2021/05/30 09:06:19;;;;;;;3.70;3.50;;;;;;;;;;4986055;28;21145;-47
2021/05/30 09:08:45;;;;;;;4.10;3.20;;;;;;;;;;4974424;28;20678;-47
2021/05/30 09:11:10;;;;;;;5.00;4.60;;;;;;;;;;4966226;28;20291;-47
2021/05/30 09:14:11;;;;;;;4.80;3.67;;;;;;;;;;4978046;28;20171;-47
2021/05/30 09:16:49;;;;;;;5.93;4.17;;;;;;;;;;4965069;28;20188;-47
2021/05/30 09:19:38;;;;;;;3.90;3.60;;;;;;;;;;4983942;28;20603;-49
2021/05/30 09:22:16;;;;;;;7.87;3.63;;;;;;;;;;4970888;28;21248;-49
2021/05/30 09:24:56;;;;;;;4.00;3.70;;;;;;;;;;4983518;28;20608;-47
2021/05/30 09:27:22;;;;;;;4.23;3.93;;;;;;;;;;4981961;28;20691;-47
2021/05/30 09:30:07;;;;;;;3.57;3.30;;;;;;;;;;4986625;28;20775;-47
2021/05/30 09:32:51;;;;;;;4.20;3.90;;;;;;;;;;4982624;28;20609;-47
2021/05/30 09:35:16;;;;;;;4.13;3.83;;;;;;;;;;5005080;28;20581;-47
2021/05/30 09:37:41;;;;;;;4.40;4.00;;;;;;;;;;4992217;28;20604;-48
2021/05/30 09:40:06;;;;;;;4.13;3.47;;;;;;;;;;4986685;28;20659;-47
2021/05/30 09:42:33;;;;;;;4.73;3.80;;;;;;;;;;4999857;28;20190;-48
2021/05/30 09:45:00;;;;;;;3.67;3.47;;;;;;;;;;4993953;28;20178;-47
2021/05/30 09:47:31;;;;;;;3.77;3.53;;;;;;;;;;4987856;28;20588;-47
2021/05/30 09:49:56;;;;;;;3.63;3.43;;;;;;;;;;5005156;28;20632;-48
2021/05/30 09:52:35;;;;;;;4.57;4.13;;;;;;;;;;5006095;28;20587;-47
2021/05/30 09:55:10;;;;;;;3.93;3.63;;;;;;;;;;5004983;28;20268;-48
2021/05/30 09:57:35;;;;;;;3.97;3.67;;;;;;;;;;5004553;28;20942;-48
2021/05/30 10:00:00;;;;;;;3.70;3.40;;;;;;;;;;4985053;28;20724;-48
2021/05/30 10:02:26;;;;;;;3.53;3.28;;;;;;;;;;4986278;28;20600;-48
2021/05/30 10:04:51;;;;;;;4.90;3.60;;;;;;;;;;5001561;28;20225;-47
2021/05/30 10:07:16;;;;;;;3.70;3.50;;;;;;;;;;5004109;28;20270;-47
2021/05/30 10:09:41;;;;;;;3.75;3.55;;;;;;;;;;4992591;28;20187;-46
2021/05/30 10:12:06;;;;;;;3.87;3.57;;;;;;;;;;4986495;28;20183;-48
2021/05/30 10:14:32;;;;;;;3.90;3.60;;;;;;;;;;4983629;28;20209;-47
2021/05/30 10:16:57;;;;;;;3.77;3.57;;;;;;;;;;4981963;28;20198;-48
2021/05/30 10:19:32;;;;;;;3.70;3.40;;;;;;;;;;5003511;28;20191;-47
2021/05/30 10:21:59;;;;;;;4.27;3.87;;;;;;;;;;4988381;28;20576;-47
2021/05/30 10:24:24;;;;;;;3.90;3.60;;;;;;;;;;4988139;28;20699;-47
2021/05/30 10:27:09;;;;;;;4.00;3.70;;;;;;;;;;4987690;28;20711;-48
2021/05/30 10:29:35;;;;;;;4.17;3.83;;;;;;;;;;4986123;28;20622;-47
2021/05/30 10:32:13;;;;;;;4.07;3.67;;;;;;;;;;4989969;28;20683;-47
2021/05/30 10:34:38;;;;;;;3.87;3.60;;;;;;;;;;5005975;28;20557;-47
2021/05/30 10:37:10;;;;;;;3.60;3.40;;;;;;;;;;4989985;28;20621;-47
2021/05/30 10:39:35;;;;;;;3.67;3.37;;;;;;;;;;4986731;28;20536;-47
2021/05/30 10:42:11;;;;;;;3.27;3.00;;;;;;;;;;4990796;28;20601;-48
2021/05/30 10:44:53;;;;;;;3.53;3.33;;;;;;;;;;4989058;28;20178;-47
2021/05/30 10:47:19;;;;;;;2.90;2.70;;;;;;;;;;4989235;28;20607;-47
2021/05/30 10:50:09;;;;;;;3.30;3.10;;;;;;;;;;4986736;28;20610;-48
2021/05/30 10:52:35;;;;;;;3.90;3.27;;;;;;;;;;4984243;28;20187;-48
2021/05/30 10:55:09;;;;;;;3.67;3.40;;;;;;;;;;4987746;28;20593;-48
2021/05/30 10:57:41;;;;;;;4.17;3.97;;;;;;;;;;4991974;28;20615;-48
2021/05/30 11:00:19;;;;;;;4.13;3.83;;;;;;;;;;5009475;28;20698;-48
2021/05/30 11:03:06;;;;;;;4.63;4.23;;;;;;;;;;4994105;28;20598;-48
2021/05/30 11:05:38;;;;;;;6.00;5.47;;;;;;;;;;4992391;28;21302;-48
2021/05/30 11:08:03;;;;;;;4.20;3.90;;;;;;;;;;4986668;28;20623;-47
2021/05/30 11:10:28;;;;;;;5.10;4.80;;;;;;;;;;4989063;28;20749;-48
2021/05/30 11:12:54;;;;;;;6.15;4.72;;;;;;;;;;4987469;28;20675;-48
2021/05/30 11:15:20;;;;;;;5.53;5.03;;;;;;;;;;4987980;28;20208;-48
2021/05/30 11:17:45;;;;;;;4.83;4.43;;;;;;;;;;4991725;28;20235;-47
2021/05/30 11:20:14;;;;;;;4.43;4.03;;;;;;;;;;4986480;28;20612;-47
2021/05/30 11:22:47;;;;;;;4.10;3.80;;;;;;;;;;4982937;28;20227;-48
2021/05/30 11:25:13;;;;;;;4.67;3.90;;;;;;;;;;4987465;28;20597;-47
2021/05/30 11:27:48;;;;;;;4.37;4.00;;;;;;;;;;5004367;28;21193;-47
2021/05/30 11:30:32;;;;;;;3.93;3.73;;;;;;;;;;5004463;28;21237;-47
2021/05/30 11:32:57;;;;;;;4.70;4.40;;;;;;;;;;5003443;28;20770;-47
2021/05/30 11:35:23;;;;;;;4.10;3.73;;;;;;;;;;4992675;28;20599;-47
2021/05/30 11:37:48;;;;;;;3.80;3.60;;;;;;;;;;4985055;28;20183;-48
2021/05/30 11:40:17;;;;;;;4.40;4.00;;;;;;;;;;4986970;28;20243;-46
2021/05/30 11:42:42;;;;;;;3.80;3.60;;;;;;;;;;4984326;28;20226;-48
2021/05/30 11:45:07;;;;;;;3.63;3.33;;;;;;;;;;4984886;28;20634;-48
2021/05/30 11:47:33;;;;;;;3.60;3.40;;;;;;;;;;4984459;28;20611;-48
2021/05/30 11:49:59;;;;;;;4.13;3.83;;;;;;;;;;4993231;28;20219;-47
2021/05/30 11:52:27;;;;;;;3.63;3.43;;;;;;;;;;4986200;28;20649;-47
2021/05/30 11:54:53;;;;;;;4.00;3.70;;;;;;;;;;4991806;28;20622;-47
2021/05/30 11:57:19;;;;;;;4.37;4.07;;;;;;;;;;4999847;28;20606;-47
2021/05/30 11:59:56;;;;;;;4.43;4.13;;;;;;;;;;4982900;28;20615;-47
2021/05/30 12:02:32;;;;;;;3.87;3.67;;;;;;;;;;4981579;28;20697;-47
2021/05/30 12:04:58;;;;;;;4.43;4.10;;;;;;;;;;4979759;28;20608;-47
2021/05/30 12:07:25;;;;;;;4.57;4.27;;;;;;;;;;4982366;28;20669;-46
2021/05/30 12:09:54;;;;;;;3.70;3.50;;;;;;;;;;4985578;28;21170;-47
2021/05/30 12:12:20;;;;;;;4.60;4.30;;;;;;;;;;4984705;28;20606;-47
2021/05/30 12:14:45;;;;;;;3.73;3.50;;;;;;;;;;4984596;28;20611;-47
2021/05/30 12:17:10;;;;;;;3.70;3.50;;;;;;;;;;4982447;28;20181;-47
2021/05/30 12:19:42;;;;;;;4.43;4.13;;;;;;;;;;4984715;28;20177;-47
2021/05/30 12:22:08;;;;;;;4.73;4.33;;;;;;;;;;4977448;28;20647;-48
2021/05/30 12:24:36;;;;;;;4.30;4.00;;;;;;;;;;4983597;28;21191;-47
2021/05/30 12:27:01;;;;;;;3.67;3.47;;;;;;;;;;4983071;28;20251;-47
2021/05/30 12:29:28;;;;;;;3.70;3.50;;;;;;;;;;4976249;28;20646;-47
2021/05/30 12:31:53;;;;;;;3.77;3.50;;;;;;;;;;4980985;28;20377;-46
2021/05/30 12:34:18;;;;;;;3.73;3.43;;;;;;;;;;4979619;28;20613;-46
2021/05/30 12:36:45;;;;;;;4.00;3.80;;;;;;;;;;4980601;28;20187;-46
2021/05/30 12:39:14;;;;;;;4.23;3.93;;;;;;;;;;4985231;28;20184;-47
2021/05/30 12:41:44;;;;;;;3.80;3.50;;;;;;;;;;4981036;28;20597;-47
2021/05/30 12:44:11;;;;;;;4.23;3.93;;;;;;;;;;4990282;28;21177;-46
2021/05/30 12:46:37;;;;;;;3.97;3.70;;;;;;;;;;4978475;28;20624;-47
2021/05/30 12:49:10;;;;;;;3.80;3.60;;;;;;;;;;4973927;28;20630;-47
2021/05/30 12:51:35;;;;;;;3.73;3.53;;;;;;;;;;4984711;28;20644;-47
2021/05/30 12:54:14;;;;;;;3.00;2.80;;;;;;;;;;4979225;28;20600;-48
2021/05/30 12:56:44;;;;;;;3.53;3.30;;;;;;;;;;4973055;28;20183;-48
2021/05/30 12:59:09;;;;;;;3.60;3.33;;;;;;;;;;4981462;28;21190;-47
2021/05/30 13:01:35;;;;;;;3.80;3.60;;;;;;;;;;4983340;28;21022;-47
2021/05/30 13:04:16;;;;;;;3.50;3.20;;;;;;;;;;4981571;28;20188;-47
2021/05/30 13:07:00;;;;;;;3.83;3.53;;;;;;;;;;4980245;28;21258;-48
2021/05/30 13:09:46;;;;;;;3.30;3.10;;;;;;;;;;4978727;28;20601;-47
2021/05/30 13:12:25;;;;;;;3.50;3.20;;;;;;;;;;4994066;28;20630;-47
2021/05/30 13:15:02;;;;;;;4.17;3.97;;;;;;;;;;4982420;28;20612;-47
2021/05/30 13:17:27;;;;;;;3.67;3.40;;;;;;;;;;4978853;28;20610;-47
2021/05/30 13:20:06;;;;;;;3.47;3.20;;;;;;;;;;4988542;28;20626;-49
2021/05/30 13:22:32;;;;;;;3.60;3.30;;;;;;;;;;4984463;28;20193;-47
2021/05/30 13:24:57;;;;;;;3.27;3.07;;;;;;;;;;4982573;28;20620;-47
2021/05/30 13:27:27;;;;;;;4.07;3.70;;;;;;;;;;4983529;28;20617;-47
2021/05/30 13:30:09;;;;;;;3.37;3.17;;;;;;;;;;4994922;28;20242;-47
2021/05/30 13:32:34;;;;;;;3.40;3.20;;;;;;;;;;4987618;28;21020;-47
2021/05/30 13:35:00;;;;;;;4.03;3.83;;;;;;;;;;4989190;28;20596;-47
2021/05/30 13:37:25;;;;;;;3.60;3.10;;;;;;;;;;4981422;28;20189;-47
2021/05/30 13:39:53;;;;;;;3.40;3.20;;;;;;;;;;4980392;28;20544;-47
2021/05/30 13:42:18;;;;;;;3.17;2.97;;;;;;;;;;4986593;28;20179;-47
2021/05/30 13:44:43;;;;;;;3.77;3.47;;;;;;;;;;4981508;28;20620;-47
2021/05/30 13:47:08;;;;;;;4.10;3.80;;;;;;;;;;4982651;28;20178;-46
2021/05/30 13:49:33;;;;;;;3.58;3.38;;;;;;;;;;4985863;28;20268;-46
2021/05/30 13:51:59;;;;;;;3.40;3.20;;;;;;;;;;4986051;28;20262;-47
2021/05/30 13:54:24;;;;;;;3.80;3.60;;;;;;;;;;4981025;28;20659;-47
2021/05/30 13:56:49;;;;;;;3.10;2.90;;;;;;;;;;4981349;28;20504;-48
2021/05/30 13:59:14;;;;;;;3.90;3.67;;;;;;;;;;4978365;28;20217;-47
2021/05/30 14:01:39;;;;;;;3.88;3.58;;;;;;;;;;4986330;28;20184;-47
2021/05/30 14:04:04;;;;;;;3.60;3.40;;;;;;;;;;4986881;28;20253;-47
2021/05/30 14:06:30;;;;;;;3.20;3.00;;;;;;;;;;4986391;28;20233;-46
2021/05/30 14:08:56;;;;;;;3.53;3.23;;;;;;;;;;4985933;28;20197;-47
2021/05/30 14:11:21;;;;;;;3.80;3.50;;;;;;;;;;4983515;28;20219;-47
2021/05/30 14:13:46;;;;;;;3.80;3.60;;;;;;;;;;4990980;28;20616;-47
2021/05/30 14:16:11;;;;;;;3.65;3.40;;;;;;;;;;4987012;28;20206;-47
2021/05/30 14:18:36;;;;;;;4.03;3.70;;;;;;;;;;4977730;28;20191;-47
2021/05/30 14:21:02;;;;;;;4.10;3.80;;;;;;;;;;4986643;28;20248;-47
2021/05/30 14:23:28;;;;;;;3.67;3.47;;;;;;;;;;4980546;28;20623;-47
2021/05/30 14:25:53;;;;;;;3.50;3.30;;;;;;;;;;4986471;28;20255;-48
2021/05/30 14:28:18;;;;;;;2.90;2.80;;;;;;;;;;4986429;28;20205;-48
2021/05/30 14:30:43;;;;;;;4.30;4.00;;;;;;;;;;4986208;28;20221;-48
2021/05/30 14:33:09;;;;;;;3.33;3.13;;;;;;;;;;4986981;28;20260;-47
2021/05/30 14:35:34;;;;;;;3.63;3.43;;;;;;;;;;4986642;28;20183;-48
2021/05/30 14:37:59;;;;;;;3.33;3.13;;;;;;;;;;4986859;28;20184;-48
2021/05/30 14:40:24;;;;;;;3.27;3.07;;;;;;;;;;4985522;28;20185;-47